Wetterdaten: aktuell Sonntag, 23.09.2018 05:20
Datum Zeit Temp. A. Wasser Luftdruck Regen Wind Richtung Richtung Solar Taupunkt Windben
23.09.2018 05:20 14.0 C 19.4 C 1017.9 hPa 0.0 mm 4.4 kts (2 Bft) N 5 0 W/m 12.4 C 6.1 kts (2 Bft)
23.09.2018 05:10 13.8 C 19.4 C 1018.0 hPa 0.0 mm 3.1 kts (2 Bft) N 5 0 W/m 12.0 C 4.3 kts (2 Bft)
23.09.2018 05:00 13.8 C 19.4 C 1018.3 hPa 0.0 mm 5.0 kts (2 Bft) N 5 0 W/m 12.0 C 7.8 kts (3 Bft)
23.09.2018 04:50 13.8 C 19.4 C 1018.4 hPa 0.0 mm 5.1 kts (2 Bft) N 5 0 W/m 11.8 C 7.8 kts (3 Bft)
23.09.2018 04:40 13.8 C 19.4 C 1018.7 hPa 0.0 mm 3.2 kts (2 Bft) N 5 0 W/m 11.8 C 5.2 kts (2 Bft)
23.09.2018 04:30 13.8 C 19.4 C 1018.7 hPa 0.0 mm 4.5 kts (2 Bft) N 5 0 W/m 11.8 C 6.1 kts (2 Bft)
23.09.2018 04:20 13.8 C 19.4 C 1019.0 hPa 0.0 mm 5.0 kts (2 Bft) N 5 0 W/m 11.8 C 6.1 kts (2 Bft)
23.09.2018 04:10 13.7 C 19.4 C 1019.1 hPa 0.0 mm 3.0 kts (1 Bft) N 5 0 W/m 11.7 C 4.3 kts (2 Bft)
23.09.2018 04:00 13.6 C 19.4 C 1019.2 hPa 0.0 mm 4.5 kts (2 Bft) N 5 0 W/m 11.6 C 7.0 kts (3 Bft)
23.09.2018 03:50 13.4 C 19.4 C 1019.3 hPa 0.0 mm 4.8 kts (2 Bft) N 5 0 W/m 11.5 C 7.0 kts (3 Bft)
23.09.2018 03:40 13.3 C 19.4 C 1019.6 hPa 0.0 mm 4.8 kts (2 Bft) N 5 0 W/m 11.5 C 6.1 kts (2 Bft)
23.09.2018 03:30 13.4 C 19.4 C 1020.0 hPa 0.0 mm 2.4 kts (1 Bft) N 5 0 W/m 11.6 C 5.2 kts (2 Bft)
23.09.2018 03:20 13.5 C 19.4 C 1020.1 hPa 0.0 mm 0.0 kts (0 Bft) N 5 0 W/m 11.7 C 0.0 kts (0 Bft)
23.09.2018 03:10 13.6 C 19.4 C 1020.3 hPa 0.0 mm 0.0 kts (0 Bft) N 5 0 W/m 11.8 C 0.9 kts (1 Bft)
23.09.2018 03:00 13.5 C 19.4 C 1020.6 hPa 0.0 mm 0.0 kts (0 Bft) N 5 0 W/m 11.7 C 0.0 kts (0 Bft)
23.09.2018 02:50 13.6 C 19.4 C 1020.6 hPa 0.0 mm 0.0 kts (0 Bft) N 5 0 W/m 11.6 C 0.0 kts (0 Bft)
23.09.2018 02:40 13.7 C 19.4 C 1020.8 hPa 0.0 mm 0.0 kts (0 Bft) N 5 0 W/m 11.6 C 0.0 kts (0 Bft)
23.09.2018 02:30 13.8 C 19.4 C 1020.9 hPa 0.0 mm 0.0 kts (0 Bft) N 5 0 W/m 11.5 C 0.0 kts (0 Bft)
23.09.2018 02:20 13.8 C 19.4 C 1020.9 hPa 0.2 mm 0.0 kts (0 Bft) N 5 0 W/m 11.3 C 0.0 kts (0 Bft)
23.09.2018 02:10 13.7 C 20.0 C 1021.1 hPa 0.0 mm 0.0 kts (0 Bft) N 5 0 W/m 11.0 C 0.0 kts (0 Bft)
23.09.2018 02:00 13.6 C 20.0 C 1021.3 hPa 0.0 mm 0.0 kts (0 Bft) N 5 0 W/m 10.9 C 0.0 kts (0 Bft)
23.09.2018 01:50 13.8 C 20.0 C 1021.3 hPa 0.0 mm 1.2 kts (1 Bft) N 5 0 W/m 11.5 C 3.5 kts (2 Bft)
23.09.2018 01:40 13.9 C 20.0 C 1021.3 hPa 0.2 mm 2.7 kts (1 Bft) N 5 0 W/m 11.4 C 4.3 kts (2 Bft)
23.09.2018 01:30 14.2 C 20.0 C 1021.3 hPa 0.0 mm 2.4 kts (1 Bft) N 5 0 W/m 11.4 C 3.5 kts (2 Bft)
23.09.2018 01:20 14.3 C 20.0 C 1021.4 hPa 0.0 mm 1.9 kts (1 Bft) N 5 0 W/m 11.3 C 3.5 kts (2 Bft)
23.09.2018 01:10 14.7 C 20.0 C 1021.4 hPa 0.0 mm 4.0 kts (2 Bft) N 5 0 W/m 11.3 C 8.7 kts (3 Bft)
23.09.2018 01:00 15.3 C 20.0 C 1021.5 hPa 0.2 mm 7.9 kts (3 Bft) N 5 0 W/m 11.5 C 12.1 kts (4 Bft)
23.09.2018 00:50 15.3 C 20.0 C 1021.5 hPa 0.0 mm 6.4 kts (2 Bft) N 5 0 W/m 11.1 C 11.3 kts (4 Bft)
23.09.2018 00:40 15.5 C 20.0 C 1021.4 hPa 0.0 mm 5.6 kts (2 Bft) N 5 0 W/m 10.9 C 8.7 kts (3 Bft)
23.09.2018 00:30 15.3 C 20.0 C 1021.3 hPa 0.0 mm 4.5 kts (2 Bft) N 5 0 W/m 11.1 C 7.8 kts (3 Bft)
23.09.2018 00:20 15.4 C 20.0 C 1021.0 hPa 0.0 mm 4.9 kts (2 Bft) N 5 0 W/m 11.0 C 7.0 kts (3 Bft)
23.09.2018 00:10 15.6 C 20.0 C 1020.8 hPa 0.0 mm 3.5 kts (2 Bft) N 5 0 W/m 11.2 C 6.1 kts (2 Bft)
23.09.2018 00:00 15.6 C 20.0 C 1020.9 hPa 0.0 mm 4.9 kts (2 Bft) N 5 0 W/m 11.2 C 7.8 kts (3 Bft)
22.09.2018 23:50 15.4 C 20.0 C 1020.8 hPa 0.0 mm 3.6 kts (2 Bft) N 5 0 W/m 11.4 C 7.0 kts (3 Bft)
22.09.2018 23:40 15.4 C 20.0 C 1020.5 hPa 0.0 mm 4.3 kts (2 Bft) N 5 0 W/m 11.4 C 6.1 kts (2 Bft)
22.09.2018 23:30 15.5 C 20.0 C 1020.4 hPa 0.0 mm 3.4 kts (2 Bft) N 5 0 W/m 11.7 C 6.1 kts (2 Bft)
22.09.2018 23:20 15.6 C 20.0 C 1020.4 hPa 0.0 mm 2.5 kts (1 Bft) N 5 0 W/m 12.0 C 3.5 kts (2 Bft)
22.09.2018 23:10 15.7 C 20.0 C 1020.3 hPa 0.0 mm 2.5 kts (1 Bft) N 5 0 W/m 12.3 C 4.3 kts (2 Bft)
22.09.2018 23:00 15.7 C 20.0 C 1020.3 hPa 0.0 mm 2.5 kts (1 Bft) N 5 0 W/m 12.1 C 3.5 kts (2 Bft)
22.09.2018 22:50 15.6 C 20.0 C 1020.3 hPa 0.0 mm 2.6 kts (1 Bft) N 5 0 W/m 11.8 C 3.5 kts (2 Bft)
22.09.2018 22:40 15.4 C 20.0 C 1020.2 hPa 0.0 mm 3.1 kts (1 Bft) N 5 0 W/m 12.0 C 4.3 kts (2 Bft)
22.09.2018 22:30 15.6 C 20.0 C 1020.2 hPa 0.0 mm 3.0 kts (1 Bft) N 5 0 W/m 12.2 C 5.2 kts (2 Bft)
22.09.2018 22:20 15.7 C 20.0 C 1020.3 hPa 0.0 mm 3.5 kts (2 Bft) N 5 0 W/m 12.1 C 5.2 kts (2 Bft)
22.09.2018 22:10 15.7 C 20.0 C 1020.3 hPa 0.0 mm 2.4 kts (1 Bft) N 5 0 W/m 12.1 C 3.5 kts (2 Bft)
22.09.2018 22:00 15.8 C 20.0 C 1020.5 hPa 0.0 mm 2.2 kts (1 Bft) N 5 0 W/m 12.0 C 3.5 kts (2 Bft)
22.09.2018 21:50 15.7 C 20.0 C 1020.3 hPa 0.0 mm 1.9 kts (1 Bft) N 5 0 W/m 11.7 C 3.5 kts (2 Bft)
22.09.2018 21:40 15.7 C 20.0 C 1020.3 hPa 0.0 mm 3.2 kts (2 Bft) N 5 0 W/m 11.7 C 4.3 kts (2 Bft)
22.09.2018 21:30 15.7 C 20.0 C 1020.3 hPa 0.0 mm 3.0 kts (1 Bft) N 5 0 W/m 11.5 C 5.2 kts (2 Bft)
22.09.2018 21:20 15.6 C 20.0 C 1020.4 hPa 0.0 mm 4.5 kts (2 Bft) N 5 0 W/m 11.8 C 6.1 kts (2 Bft)
22.09.2018 21:10 15.4 C 20.0 C 1020.4 hPa 0.0 mm 4.4 kts (2 Bft) N 5 0 W/m 11.6 C 6.1 kts (2 Bft)
22.09.2018 21:00 15.4 C 20.0 C 1020.1 hPa 0.0 mm 3.0 kts (1 Bft) N 5 0 W/m 11.8 C 4.3 kts (2 Bft)
22.09.2018 20:50 15.4 C 20.0 C 1020.1 hPa 0.0 mm 3.2 kts (2 Bft) N 5 0 W/m 11.6 C 5.2 kts (2 Bft)
22.09.2018 20:40 15.4 C 20.6 C 1020.3 hPa 0.0 mm 3.7 kts (2 Bft) N 5 0 W/m 11.6 C 6.1 kts (2 Bft)
22.09.2018 20:30 15.4 C 20.6 C 1020.3 hPa 0.0 mm 3.7 kts (2 Bft) N 5 0 W/m 11.6 C 6.1 kts (2 Bft)
22.09.2018 20:20 15.4 C 20.6 C 1020.3 hPa 0.0 mm 3.9 kts (2 Bft) N 5 0 W/m 11.4 C 6.1 kts (2 Bft)
22.09.2018 20:10 15.7 C 20.6 C 1020.1 hPa 0.0 mm 2.9 kts (1 Bft) N 5 0 W/m 11.7 C 4.3 kts (2 Bft)
22.09.2018 20:00 15.8 C 20.6 C 1020.3 hPa 0.0 mm 1.9 kts (1 Bft) N 5 0 W/m 11.6 C 3.5 kts (2 Bft)
22.09.2018 19:50 15.8 C 20.6 C 1020.3 hPa 0.0 mm 3.1 kts (1 Bft) N 5 0 W/m 11.4 C 4.3 kts (2 Bft)
22.09.2018 19:40 15.9 C 20.6 C 1020.3 hPa 0.0 mm 1.7 kts (1 Bft) N 5 0 W/m 11.5 C 3.5 kts (2 Bft)
22.09.2018 19:30 16.1 C 20.6 C 1020.1 hPa 0.0 mm 2.2 kts (1 Bft) N 5 0 W/m 11.5 C 3.5 kts (2 Bft)
22.09.2018 19:20 16.2 C 20.6 C 1019.9 hPa 0.0 mm 2.2 kts (1 Bft) N 5 0 W/m 11.4 C 3.5 kts (2 Bft)
22.09.2018 19:10 16.3 C 20.6 C 1020.1 hPa 0.0 mm 2.4 kts (1 Bft) N 5 0 W/m 11.2 C 3.5 kts (2 Bft)
22.09.2018 19:00 16.4 C 20.6 C 1020.0 hPa 0.0 mm 3.0 kts (1 Bft) N 5 7 W/m 10.9 C 4.3 kts (2 Bft)
22.09.2018 18:50 16.6 C 20.6 C 1020.0 hPa 0.0 mm 2.8 kts (1 Bft) N 5 21 W/m 11.5 C 4.3 kts (2 Bft)
22.09.2018 18:40 16.6 C 20.6 C 1019.9 hPa 0.0 mm 3.5 kts (2 Bft) N 5 23 W/m 10.4 C 5.2 kts (2 Bft)
22.09.2018 18:30 16.7 C 20.6 C 1020.0 hPa 0.0 mm 3.0 kts (1 Bft) N 5 26 W/m 10.5 C 4.3 kts (2 Bft)
22.09.2018 18:20 16.8 C 20.6 C 1020.1 hPa 0.0 mm 3.3 kts (2 Bft) N 5 26 W/m 10.4 C 4.3 kts (2 Bft)
22.09.2018 18:10 16.7 C 20.6 C 1020.2 hPa 0.0 mm 3.7 kts (2 Bft) N 5 47 W/m 10.1 C 5.2 kts (2 Bft)
22.09.2018 18:00 16.7 C 20.6 C 1020.4 hPa 0.0 mm 2.5 kts (1 Bft) N 5 90 W/m 9.6 C 4.3 kts (2 Bft)
22.09.2018 17:50 16.7 C 20.6 C 1020.5 hPa 0.0 mm 2.6 kts (1 Bft) N 5 98 W/m 9.6 C 3.5 kts (2 Bft)
22.09.2018 17:40 16.7 C 20.6 C 1020.5 hPa 0.0 mm 3.9 kts (2 Bft) N 5 130 W/m 9.9 C 5.2 kts (2 Bft)
22.09.2018 17:30 16.7 C 20.6 C 1020.5 hPa 0.0 mm 2.9 kts (1 Bft) N 5 146 W/m 9.6 C 4.3 kts (2 Bft)
22.09.2018 17:20 16.7 C 20.6 C 1020.6 hPa 0.0 mm 1.7 kts (1 Bft) N 5 199 W/m 9.6 C 5.2 kts (2 Bft)
_ Min-Zeit 07:40 06:00 05:20 - 12:00 - - - 16:10 12:00
Minimum _ 11.8 C 19.4 C 1017.9 hPa - 0.0 kts (0 Bft) - - - 8.5 C 0.0 kts (0 Bft)
_ Max-Zeit 18:20 15:10 09:50 01:00 01:00 - - 13:50 05:20 01:00
Maximum _ 16.8 C 20.6 C 1023.8 hPa 0.2 mm 7.9 kts
N (3 Bft)
- - 633 W/m 12.4 C 12.1 kts
N (4 Bft)
Durchschnitt _ 14.5 C 19.9 C 1021.5 hPa #0.6 mm 3.2 kts (2 Bft) N - 0 W/m 10.4 C 5.2 kts (2 Bft)